Time;durP1;ratioP1;P1;durP2;ratioP2;P2;SDS_P1;SDS_P2;PMS_P1;PMS_P2;Temp;Humidity;BMP_temperature;BMP_pressure;BME280_temperature;BME280_humidity;BME280_pressure;Samples;Min_cycle;Max_cycle;Signal;HPM_P1;HPM_P2
2023/05/15 00:00:23;;;;;;;;;12.50;11.00;;;;;15.57;75.44;101239.88;146609;615;47010;-74
2023/05/15 00:03:22;;;;;;;;;10.25;10.00;;;;;15.60;75.31;101240.87;146603;623;46013;-74
2023/05/15 00:06:27;;;;;;;;;10.50;8.00;;;;;15.63;75.28;101232.28;146607;566;46021;-75
2023/05/15 00:09:34;;;;;;;;;8.00;8.00;;;;;15.63;74.88;101229.66;146600;608;49916;-74
2023/05/15 00:12:41;;;;;;;;;;;;;;;;;;;;;
2023/05/15 00:15:39;;;;;;;;;11.00;10.00;;;;;15.53;75.40;101214.44;146605;714;46016;-76
2023/05/15 00:18:35;;;;;;;;;9.75;9.50;;;;;15.46;76.21;101209.00;146608;603;46020;-75
2023/05/15 00:21:42;;;;;;;;;11.75;11.50;;;;;15.39;75.60;101200.84;146609;610;46914;-77
2023/05/15 00:24:42;;;;;;;;;8.75;8.75;;;;;15.34;76.49;101194.56;146605;680;46020;-77
2023/05/15 00:27:37;;;;;;;;;11.00;9.50;;;;;15.31;76.31;101204.88;146608;681;46915;-73
2023/05/15 00:30:42;;;;;;;;;10.75;10.75;;;;;14.18;75.87;101010.63;146617;569;46010;-76
2023/05/15 00:33:40;;;;;;;;;9.75;9.25;;;;;15.36;76.52;101208.59;146605;652;46012;-75
2023/05/15 00:36:34;;;;;;;;;11.50;11.50;;;;;15.44;76.24;101205.41;146614;707;47010;-75
2023/05/15 00:39:29;;;;;;;;;12.00;11.00;;;;;15.52;75.62;101192.66;146601;661;47012;-75
2023/05/15 00:42:27;;;;;;;;;12.00;11.25;;;;;15.54;75.59;101184.88;146610;597;46021;-78
2023/05/15 00:45:32;;;;;;;;;10.75;10.25;;;;;15.51;76.23;101180.41;146606;570;47016;-77
2023/05/15 00:48:31;;;;;;;;;12.25;11.00;;;;;15.48;75.87;101177.66;146607;628;47010;-76
2023/05/15 00:51:28;;;;;;;;;9.25;8.75;;;;;15.45;76.08;101175.84;146603;682;46012;-76
2023/05/15 00:54:27;;;;;;;;;10.00;8.00;;;;;15.46;75.52;101171.50;146605;580;46020;-77
2023/05/15 00:57:33;;;;;;;;;11.25;10.00;;;;;15.49;75.55;101166.41;146608;603;47013;-76
2023/05/15 01:00:30;;;;;;;;;12.00;10.25;;;;;15.52;76.05;101158.69;146610;570;46010;-75
2023/05/15 01:03:29;;;;;;;;;12.00;11.25;;;;;15.54;75.37;101151.78;146603;583;47013;-76
2023/05/15 01:06:31;;;;;;;;;14.00;13.25;;;;;15.54;75.43;101133.47;146605;563;47010;-77
2023/05/15 01:09:32;;;;;;;;;14.25;12.00;;;;;15.51;75.88;101117.69;146603;569;46016;-77
2023/05/15 01:12:37;;;;;;;;;9.50;9.50;;;;;15.51;75.73;101111.56;146606;564;47010;-77
2023/05/15 01:15:40;;;;;;;;;9.75;9.75;;;;;15.50;76.46;101097.63;146611;573;46031;-77
2023/05/15 01:18:35;;;;;;;;;14.00;12.00;;;;;15.48;75.92;101094.97;146615;579;47011;-78
2023/05/15 01:22:19;;;;;;;;;15.00;12.00;;;;;14.38;74.68;100909.69;146606;583;46016;-79
2023/05/15 01:25:53;;;;;;;;;12.75;10.75;;;;;15.47;75.47;101105.34;146601;581;47011;-74
2023/05/15 01:29:02;;;;;;;;;10.75;10.00;;;;;15.44;75.51;101100.00;146604;582;46035;-73
2023/05/15 01:32:04;;;;;;;;;12.75;10.75;;;;;15.41;75.29;101099.88;146607;735;47010;-73
2023/05/15 01:35:41;;;;;;;;;13.00;10.00;;;;;15.40;75.58;101096.38;146603;648;47012;-74
2023/05/15 01:38:57;;;;;;;;;13.25;12.00;;;;;15.35;76.12;101102.25;146604;614;47022;-75
2023/05/15 01:42:11;;;;;;;;;11.50;10.00;;;;;15.24;75.42;101102.75;146604;621;47013;-74
2023/05/15 01:45:17;;;;;;;;;13.00;10.50;;;;;15.17;76.82;101092.00;146606;627;47010;-77
2023/05/15 01:48:25;;;;;;;;;13.00;11.00;;;;;15.06;77.34;101083.75;146602;608;47012;-76
2023/05/15 01:51:42;;;;;;;;;;;;;;;;;;;;;
2023/05/15 01:54:44;;;;;;;;;11.25;10.25;;;;;15.01;77.61;101069.62;146600;675;48035;-74
2023/05/15 01:57:46;;;;;;;;;11.75;10.25;;;;;15.04;77.20;101074.06;146602;615;46021;-74
2023/05/15 02:00:49;;;;;;;;;10.00;8.50;;;;;15.02;77.26;101055.75;146606;707;46016;-77
2023/05/15 02:03:45;;;;;;;;;13.50;13.50;;;;;14.99;77.80;101040.84;146612;643;47011;-75
2023/05/15 02:06:41;;;;;;;;;9.00;8.75;;;;;14.98;77.50;101038.16;146602;579;47012;-76
2023/05/15 02:09:37;;;;;;;;;10.75;9.00;;;;;15.00;77.68;101045.22;146613;564;47010;-77
2023/05/15 02:12:44;;;;;;;;;11.50;10.00;;;;;15.07;77.43;101054.19;146608;569;46016;-72
2023/05/15 02:15:42;;;;;;;;;13.00;9.50;;;;;15.15;77.33;101044.94;146606;607;46010;-73
2023/05/15 02:18:40;;;;;;;;;12.25;11.50;;;;;15.20;77.60;101039.88;146607;651;47014;-73
2023/05/15 02:21:35;;;;;;;;;12.75;10.50;;;;;15.22;77.15;101049.56;146607;588;47010;-73
2023/05/15 02:24:43;;;;;;;;;10.25;8.75;;;;;15.23;77.95;101043.50;146601;571;47016;-77
2023/05/15 02:28:12;;;;;;;;;14.25;13.25;;;;;14.55;75.82;100933.03;146600;576;46010;-77
2023/05/15 02:31:14;;;;;;;;;10.50;9.75;;;;;15.18;76.41;101034.59;146606;639;46012;-77
2023/05/15 02:34:54;;;;;;;;;11.25;11.25;;;;;14.57;75.96;100925.22;146615;615;46010;-77
2023/05/15 02:37:57;;;;;;;;;12.00;9.75;;;;;15.19;76.85;101018.09;146604;601;46916;-77
2023/05/15 02:40:58;;;;;;;;;9.00;9.00;;;;;15.15;77.26;101010.09;146612;694;46020;-78
2023/05/15 02:44:01;;;;;;;;;12.75;11.00;;;;;15.10;76.23;101009.91;146610;597;46916;-77
2023/05/15 02:47:02;;;;;;;;;10.00;10.00;;;;;15.11;77.50;100998.66;146608;592;47010;-74
2023/05/15 02:50:01;;;;;;;;;10.00;10.00;;;;;15.11;77.32;100995.12;146604;585;46016;-73
2023/05/15 02:52:54;;;;;;;;;10.25;9.50;;;;;15.17;76.54;100998.88;146605;683;47010;-73
2023/05/15 02:55:56;;;;;;;;;8.50;7.75;;;;;15.21;76.21;100989.44;146612;619;46012;-72
2023/05/15 02:59:01;;;;;;;;;10.00;8.75;;;;;15.28;77.04;100986.19;146605;612;46020;-73
2023/05/15 03:02:02;;;;;;;;;10.00;9.75;;;;;15.31;76.77;100986.31;146608;575;46013;-76
2023/05/15 03:05:14;;;;;;;;;10.25;9.75;;;;;15.34;76.16;100988.16;146616;648;47010;-76
2023/05/15 03:08:12;;;;;;;;;12.50;11.25;;;;;15.37;76.51;100985.63;146611;610;46016;-75
2023/05/15 03:11:04;;;;;;;;;11.00;10.25;;;;;15.43;76.42;100991.09;146608;606;46021;-75
2023/05/15 03:13:58;;;;;;;;;10.75;10.50;;;;;15.46;76.43;100988.59;146603;698;47014;-75
2023/05/15 03:16:53;;;;;;;;;8.50;8.50;;;;;15.47;76.36;100982.50;146610;660;46021;-74
2023/05/15 03:20:00;;;;;;;;;;;;;;;;;;;;;
2023/05/15 03:22:53;;;;;;;;;11.75;10.50;;;;;15.51;78.25;100991.34;146704;570;46014;-73
2023/05/15 03:26:09;;;;;;;;;11.50;11.25;;;;;15.04;76.11;100909.56;146613;587;46014;-74
2023/05/15 03:29:16;;;;;;;;;11.75;9.75;;;;;15.39;75.87;100963.06;146615;650;46010;-75
2023/05/15 03:32:23;;;;;;;;;14.25;13.00;;;;;15.45;75.04;100986.78;146618;566;46016;-75
2023/05/15 03:35:39;;;;;;;;;10.75;10.75;;;;;15.12;75.33;100921.19;146612;609;46020;-75
2023/05/15 03:38:42;;;;;;;;;10.00;9.50;;;;;15.45;75.23;100968.50;146607;634;47917;-76
2023/05/15 03:41:39;;;;;;;;;12.50;10.75;;;;;15.42;75.81;100961.47;146621;572;46020;-75
2023/05/15 03:44:33;;;;;;;;;13.75;11.50;;;;;15.41;75.98;100958.78;146609;612;47012;-74
2023/05/15 03:47:37;;;;;;;;;12.00;11.00;;;;;15.42;75.39;100966.69;146614;727;46010;-79
2023/05/15 03:50:31;;;;;;;;;11.25;11.00;;;;;15.44;76.13;100969.34;146607;690;46012;-78
2023/05/15 03:53:35;;;;;;;;;14.75;10.25;;;;;15.46;75.49;100975.53;146610;614;47021;-77
2023/05/15 03:56:32;;;;;;;;;14.00;12.00;;;;;15.50;76.16;100980.00;146608;572;47014;-78
2023/05/15 03:59:24;;;;;;;;;10.25;10.00;;;;;15.52;76.51;100993.16;146609;673;46021;-73
2023/05/15 04:02:25;;;;;;;;;11.25;11.25;;;;;15.54;76.48;100997.56;146610;589;46916;-73
2023/05/15 04:05:29;;;;;;;;;13.00;11.25;;;;;15.53;76.25;100995.78;146616;640;46011;-72
2023/05/15 04:08:27;;;;;;;;;11.75;9.75;;;;;15.52;76.31;100993.16;146604;586;47917;-72
2023/05/15 04:11:38;;;;;;;;;10.00;9.00;;;;;15.52;76.55;100993.16;146621;581;47020;-72
2023/05/15 04:14:36;;;;;;;;;13.00;12.50;;;;;15.54;77.03;100999.28;146617;569;46017;-73
2023/05/15 04:17:29;;;;;;;;;9.75;9.75;;;;;15.56;77.16;101006.37;146616;605;46029;-72
2023/05/15 04:20:27;;;;;;;;;12.25;10.00;;;;;15.58;76.75;101002.09;146615;583;46017;-72
2023/05/15 04:23:24;;;;;;;;;10.25;10.25;;;;;15.58;77.54;100996.87;146613;573;47010;-72
2023/05/15 04:26:25;;;;;;;;;8.75;8.75;;;;;15.60;77.25;101009.97;146610;684;46016;-73
2023/05/15 04:29:27;;;;;;;;;11.75;9.00;;;;;15.67;76.80;101010.28;146620;591;46014;-72
2023/05/15 04:32:28;;;;;;;;;12.50;10.50;;;;;15.70;77.20;101013.00;146619;580;46012;-72
2023/05/15 04:35:30;;;;;;;;;16.25;11.00;;;;;15.73;77.49;100998.25;146614;649;46015;-73
2023/05/15 04:38:25;;;;;;;;;14.50;12.75;;;;;15.78;77.80;101015.00;146609;741;46040;-73
2023/05/15 04:41:26;;;;;;;;;12.50;10.75;;;;;15.81;77.91;101012.50;146609;657;46010;-74
2023/05/15 04:44:29;;;;;;;;;16.00;13.75;;;;;15.85;78.11;101006.50;146605;597;47012;-76
2023/05/15 04:47:30;;;;;;;;;9.00;9.00;;;;;15.84;78.60;100999.53;146613;705;46020;-74
2023/05/15 04:50:22;;;;;;;;;10.75;10.25;;;;;15.83;77.42;100997.75;146616;564;46917;-73
2023/05/15 04:53:27;;;;;;;;;9.00;9.00;;;;;15.85;78.17;101003.91;146612;619;47021;-75
2023/05/15 04:56:24;;;;;;;;;11.00;11.00;;;;;15.91;77.52;101015.44;146613;685;47016;-74
2023/05/15 04:59:17;;;;;;;;;8.75;8.75;;;;;15.99;77.82;101017.47;146614;592;47010;-73
2023/05/15 05:02:17;;;;;;;;;12.50;11.50;;;;;16.06;77.33;101017.72;146612;578;46033;-73
2023/05/15 05:05:21;;;;;;;;;13.00;11.00;;;;;16.14;78.19;101007.50;146614;576;46021;-73
2023/05/15 05:08:16;;;;;;;;;13.50;12.00;;;;;16.23;77.28;101015.66;146609;631;46012;-72
2023/05/15 05:11:34;;;;;;;;;17.75;14.75;;;;;16.29;77.85;101020.19;146613;609;47010;-72
2023/05/15 05:14:39;;;;;;;;;24.25;22.50;;;;;16.37;77.04;101013.50;146611;667;46035;-72
2023/05/15 05:17:54;;;;;;;;;24.75;23.00;;;;;16.44;77.03;101010.22;146614;634;46020;-72
2023/05/15 05:20:51;;;;;;;;;25.00;22.00;;;;;16.53;76.90;101038.41;146612;597;46013;-73
2023/05/15 05:23:53;;;;;;;;;;;;;;;;;;;;;
2023/05/15 05:26:50;;;;;;;;;18.75;15.00;;;;;16.66;76.37;101050.16;146610;583;46012;-71
2023/05/15 05:29:43;;;;;;;;;8.50;8.50;;;;;16.74;76.84;101043.47;146611;632;46010;-71
2023/05/15 05:32:41;;;;;;;;;18.50;17.25;;;;;16.83;75.79;101015.84;146616;593;46014;-71
2023/05/15 05:35:43;;;;;;;;;19.25;17.00;;;;;16.87;74.76;101006.34;146611;571;47010;-72
2023/05/15 05:38:38;;;;;;;;;19.50;17.00;;;;;16.85;74.83;101002.78;146609;597;47016;-71
2023/05/15 05:41:35;;;;;;;;;20.75;17.75;;;;;16.87;75.93;100995.00;146616;672;46020;-72
2023/05/15 05:44:37;;;;;;;;;17.50;14.75;;;;;16.87;75.94;100993.25;146607;583;46916;-72
2023/05/15 05:47:30;;;;;;;;;15.75;15.50;;;;;16.89;76.04;100988.09;146614;586;46020;-72
2023/05/15 05:50:47;;;;;;;;;17.50;17.50;;;;;16.91;75.79;100999.47;146611;616;46914;-72
2023/05/15 05:53:43;;;;;;;;;16.25;15.75;;;;;16.93;74.95;101010.91;146615;606;46010;-72
2023/05/15 05:56:23;;;;;;;;;17.25;12.75;;;;;16.95;77.00;101009.22;146711;571;47014;-72
2023/05/15 05:59:28;;;;;;;;;16.25;12.50;;;;;16.99;76.02;100991.00;146618;658;46012;-74
2023/05/15 06:02:22;;;;;;;;;19.00;16.00;;;;;17.05;75.37;100991.19;146622;597;46020;-72
2023/05/15 06:05:15;;;;;;;;;12.00;9.25;;;;;17.09;74.85;100990.41;146616;607;46016;-72
2023/05/15 06:08:10;;;;;;;;;15.50;14.50;;;;;17.14;74.71;100982.72;146626;569;47010;-71
2023/05/15 06:11:12;;;;;;;;;15.00;14.75;;;;;17.18;74.65;100965.34;146616;596;48012;-73
2023/05/15 06:14:07;;;;;;;;;15.25;13.50;;;;;17.26;74.36;100966.44;146619;572;47020;-72
2023/05/15 06:17:05;;;;;;;;;17.00;15.50;;;;;17.37;74.73;100977.22;146616;578;47014;-72
2023/05/15 06:20:18;;;;;;;;;;;;;;;;;;;;;
2023/05/15 06:23:22;;;;;;;;;16.25;15.00;;;;;17.90;74.24;100973.41;146620;612;47014;-73
2023/05/15 06:26:19;;;;;;;;;15.25;14.75;;;;;18.22;73.01;100968.06;146619;635;47010;-73
2023/05/15 06:29:17;;;;;;;;;15.25;13.00;;;;;18.41;71.01;100962.44;146617;702;46917;-73
2023/05/15 06:32:39;;;;;;;;;14.50;13.00;;;;;18.42;69.73;100944.94;146618;667;47010;-74
2023/05/15 06:35:41;;;;;;;;;12.25;11.75;;;;;18.56;69.54;100969.75;146611;565;47012;-73
2023/05/15 06:38:38;;;;;;;;;13.50;12.50;;;;;18.51;69.03;100957.38;146620;588;46027;-72
2023/05/15 06:41:52;;;;;;;;;13.00;12.00;;;;;18.43;69.20;100947.56;146616;658;48012;-72
2023/05/15 06:44:51;;;;;;;;;13.25;11.75;;;;;18.35;69.72;100953.50;146701;565;46012;-72
2023/05/15 06:48:10;;;;;;;;;11.33;9.67;;;;;18.30;69.88;100966.53;146619;647;46016;-72
2023/05/15 06:51:15;;;;;;;;;14.00;12.00;;;;;18.26;69.66;100984.81;146620;564;47010;-72
2023/05/15 06:54:09;;;;;;;;;11.50;11.50;;;;;18.22;70.12;100953.25;146616;676;46016;-73
2023/05/15 06:57:04;;;;;;;;;11.25;9.00;;;;;18.16;69.54;100929.47;146618;664;46011;-72
2023/05/15 06:59:59;;;;;;;;;12.75;12.00;;;;;18.16;70.69;100931.19;146618;595;46016;-72
2023/05/15 07:03:04;;;;;;;;;11.25;10.25;;;;;18.23;70.99;100948.87;146616;576;46010;-73
2023/05/15 07:05:59;;;;;;;;;12.25;10.00;;;;;18.34;70.92;100956.97;146610;696;47012;-72
2023/05/15 07:08:54;;;;;;;;;10.75;10.50;;;;;18.43;70.84;100971.19;146617;730;46012;-72
2023/05/15 07:11:53;;;;;;;;;12.75;10.00;;;;;18.48;69.74;100980.94;146610;707;46016;-72
2023/05/15 07:15:01;;;;;;;;;;;;;;;;;;;;;
2023/05/15 07:17:58;;;;;;;;;13.00;11.25;;;;;18.54;70.35;100970.59;146701;564;46022;-72
2023/05/15 07:21:06;;;;;;;;;13.00;11.75;;;;;18.64;69.64;100951.53;146618;673;47035;-72
2023/05/15 07:24:01;;;;;;;;;12.00;11.00;;;;;18.69;69.23;100905.22;146618;567;46011;-72
2023/05/15 07:26:56;;;;;;;;;13.50;12.00;;;;;18.72;68.34;100934.19;146611;584;46014;-72
2023/05/15 07:29:50;;;;;;;;;18.75;15.50;;;;;18.67;68.63;100942.00;146618;576;47010;-72
2023/05/15 07:32:54;;;;;;;;;14.50;13.00;;;;;18.56;69.45;100942.59;146608;571;47017;-73
2023/05/15 07:35:47;;;;;;;;;14.25;13.25;;;;;18.50;71.12;100943.34;146702;577;46036;-72
2023/05/15 07:38:48;;;;;;;;;17.00;12.75;;;;;18.57;70.55;100962.78;146618;569;46016;-73
2023/05/15 07:41:46;;;;;;;;;9.75;9.25;;;;;18.66;69.78;100957.69;146618;681;46021;-72
2023/05/15 07:44:49;;;;;;;;;14.00;9.75;;;;;18.74;69.35;100945.66;146617;656;47016;-73
2023/05/15 07:48:05;;;;;;;;;8.25;8.25;;;;;18.81;68.24;100896.75;146623;654;46020;-73
2023/05/15 07:50:51;;;;;;;;;11.50;10.75;;;;;18.88;69.32;100880.28;146704;565;46014;-72
2023/05/15 07:54:11;;;;;;;;;;;;;;;;;;;;;
2023/05/15 07:57:18;;;;;;;;;14.00;11.75;;;;;19.38;67.46;100875.97;146615;662;46020;-73
2023/05/15 08:00:32;;;;;;;;;;;;;;;;;;;;;
2023/05/15 08:03:31;;;;;;;;;10.25;9.25;;;;;19.86;65.16;100889.06;146614;564;46010;-74
2023/05/15 08:06:10;;;;;;;;;9.67;8.33;;;;;19.92;64.92;100894.44;146701;564;46012;-73
2023/05/15 08:09:05;;;;;;;;;10.33;10.33;;;;;19.96;64.09;100893.59;146616;570;46016;-71
2023/05/15 08:12:30;;;;;;;;;12.50;12.00;;;;;19.91;64.61;100908.47;146611;615;47010;-71
2023/05/15 08:15:36;;;;;;;;;12.00;11.75;;;;;19.47;65.35;100863.81;146608;662;46016;-74
2023/05/15 08:18:34;;;;;;;;;10.00;9.75;;;;;19.86;65.01;100899.59;146611;602;47014;-71
2023/05/15 08:21:40;;;;;;;;;;;;;;;;;;;;;
2023/05/15 08:24:38;;;;;;;;;14.50;14.50;;;;;20.07;65.43;100890.28;146614;601;46021;-72
2023/05/15 08:27:44;;;;;;;;;18.25;14.50;;;;;20.34;65.74;100895.91;146606;649;47012;-72
2023/05/15 08:30:44;;;;;;;;;13.75;11.00;;;;;20.58;64.61;100876.97;146611;571;47020;-72
2023/05/15 08:33:57;;;;;;;;;11.25;10.50;;;;;20.86;64.44;100880.84;146611;653;46012;-72
2023/05/15 08:37:06;;;;;;;;;14.00;13.25;;;;;21.01;62.73;100885.41;146613;575;46010;-72
2023/05/15 08:40:15;;;;;;;;;14.00;12.00;;;;;21.05;63.76;100885.44;146608;604;46016;-72
2023/05/15 08:43:18;;;;;;;;;13.75;12.50;;;;;21.05;63.57;100893.34;146613;693;46010;-72
2023/05/15 08:46:24;;;;;;;;;18.25;15.75;;;;;21.06;62.35;100892.50;146606;572;47013;-74
2023/05/15 08:50:04;;;;;;;;;13.67;13.00;;;;;20.51;63.82;100824.22;146612;712;47020;-73
2023/05/15 08:53:01;;;;;;;;;13.25;12.00;;;;;20.88;61.98;100921.28;146608;635;46016;-73
2023/05/15 08:56:10;;;;;;;;;12.50;12.50;;;;;20.68;63.46;100913.97;146611;689;48010;-72
2023/05/15 08:59:03;;;;;;;;;16.00;14.00;;;;;20.47;63.02;100916.31;146608;622;47014;-73
2023/05/15 09:02:25;;;;;;;;;;;;;;;;;;;;;
2023/05/15 09:05:27;;;;;;;;;13.00;11.33;;;;;20.25;63.42;100916.00;146613;608;46012;-72
2023/05/15 09:08:28;;;;;;;;;12.75;11.75;;;;;20.26;63.40;100930.06;146610;722;47010;-76
2023/05/15 09:11:50;;;;;;;;;16.75;13.25;;;;;20.28;63.90;100925.72;146604;570;47012;-75
2023/05/15 09:14:58;;;;;;;;;12.50;12.25;;;;;20.29;64.29;100909.91;146608;624;46022;-77
2023/05/15 09:18:10;;;;;;;;;17.25;14.50;;;;;20.32;64.63;100919.63;146605;636;47034;-77
2023/05/15 09:21:28;;;;;;;;;16.75;15.00;;;;;19.48;64.18;100761.31;146608;712;47010;-77
2023/05/15 09:24:56;;;;;;;;;;;;;;;;;;;;;
2023/05/15 09:27:56;;;;;;;;;11.50;11.50;;;;;20.57;63.33;100912.97;146613;613;47010;-74
2023/05/15 09:30:58;;;;;;;;;12.00;10.50;;;;;20.23;61.36;100811.53;146608;573;46916;-76
2023/05/15 09:34:09;;;;;;;;;12.00;12.00;;;;;20.86;62.43;100888.72;146611;646;46020;-75
2023/05/15 09:37:37;;;;;;;;;8.33;8.33;;;;;20.98;62.31;100871.31;146611;657;47020;-75
2023/05/15 09:40:33;;;;;;;;;11.50;11.00;;;;;21.08;61.50;100876.69;146617;645;47000;-75
2023/05/15 09:43:27;;;;;;;;;10.25;9.75;;;;;21.26;59.77;100878.63;146609;597;46037;-73
2023/05/15 09:46:31;;;;;;;;;11.00;10.00;;;;;21.36;59.93;100860.28;146619;573;47011;-76
2023/05/15 09:49:26;;;;;;;;;13.00;10.00;;;;;21.37;60.15;100856.81;146609;597;47012;-71
2023/05/15 09:52:44;;;;;;;;;11.33;10.00;;;;;21.35;59.60;100863.81;146612;631;47010;-73
2023/05/15 09:55:39;;;;;;;;;14.25;14.25;;;;;21.37;61.18;100848.91;146608;564;46016;-73
2023/05/15 09:58:58;;;;;;;;;13.50;12.75;;;;;21.48;61.87;100848.09;146610;666;47010;-73
2023/05/15 10:01:56;;;;;;;;;17.50;13.50;;;;;21.62;60.54;100827.97;146606;701;47012;-73
2023/05/15 10:04:57;;;;;;;;;9.00;8.00;;;;;21.67;60.79;100821.84;146614;679;46010;-73
2023/05/15 10:07:57;;;;;;;;;10.67;9.33;;;;;21.74;60.28;100828.06;146612;601;46019;-72
2023/05/15 10:11:01;;;;;;;;;14.25;13.25;;;;;21.80;60.80;100827.22;146622;730;47010;-72
2023/05/15 10:14:40;;;;;;;;;15.75;14.25;;;;;21.34;62.33;100735.41;146607;692;46012;-73
2023/05/15 10:17:49;;;;;;;;;11.33;10.33;;;;;21.87;60.16;100822.00;146613;619;46021;-76
2023/05/15 10:21:02;;;;;;;;;12.67;11.67;;;;;21.89;59.44;100827.28;146609;585;46036;-74
2023/05/15 10:23:59;;;;;;;;;15.25;13.00;;;;;21.89;60.15;100825.53;146608;577;47010;-76
2023/05/15 10:27:10;;;;;;;;;;;;;;;;;;;;;
2023/05/15 10:30:06;;;;;;;;;11.33;10.67;;;;;21.96;59.09;100839.66;146613;592;46028;-74
2023/05/15 10:33:03;;;;;;;;;13.00;11.67;;;;;22.00;59.86;100838.81;146613;633;46913;-71
2023/05/15 10:35:57;;;;;;;;;12.00;11.67;;;;;22.08;58.84;100834.44;146611;571;46020;-72
2023/05/15 10:39:11;;;;;;;;;13.00;10.00;;;;;21.58;59.49;100718.87;146610;608;46017;-73
2023/05/15 10:42:18;;;;;;;;;11.00;8.33;;;;;22.26;56.94;100825.78;146615;645;47008;-73
2023/05/15 10:45:12;;;;;;;;;8.33;7.00;;;;;22.30;56.94;100822.25;146618;599;46017;-73
2023/05/15 10:48:29;;;;;;;;;8.00;7.00;;;;;22.32;59.83;100822.28;146619;584;46010;-72
2023/05/15 10:51:45;;;;;;;;;6.67;6.67;;;;;21.68;60.69;100727.72;146615;570;47014;-73
2023/05/15 10:54:58;;;;;;;;;8.00;8.00;;;;;22.09;56.94;100823.03;146621;658;47010;-72
2023/05/15 10:58:01;;;;;;;;;11.33;10.67;;;;;21.98;58.06;100818.56;146611;636;47016;-72
2023/05/15 11:01:33;;;;;;;;;11.00;10.00;;;;;20.84;60.79;100645.34;146613;582;46020;-72
2023/05/15 11:04:32;;;;;;;;;12.33;10.00;;;;;21.73;56.98;100823.66;146609;609;46016;-72
2023/05/15 11:07:34;;;;;;;;;6.33;6.33;;;;;21.55;59.15;100815.59;146616;576;46010;-73
2023/05/15 11:11:01;;;;;;;;;10.00;9.00;;;;;21.41;61.72;100826.06;146617;581;46016;-73
2023/05/15 11:14:25;;;;;;;;;10.00;8.67;;;;;21.49;61.35;100792.69;146621;591;46020;-73
2023/05/15 11:17:31;;;;;;;;;10.33;7.33;;;;;21.66;59.95;100793.72;146619;584;46034;-73
2023/05/15 11:21:01;;;;;;;;;8.00;8.00;;;;;21.70;60.91;100804.28;146622;667;46010;-73
2023/05/15 11:24:14;;;;;;;;;6.00;6.00;;;;;21.72;61.02;100797.28;146617;652;46016;-73
2023/05/15 11:27:19;;;;;;;;;7.67;7.67;;;;;21.73;60.20;100805.19;146616;645;46020;-72
2023/05/15 11:30:23;;;;;;;;;8.00;8.00;;;;;21.71;60.98;100803.41;146614;645;47013;-73
2023/05/15 11:34:03;;;;;;;;;10.67;8.33;;;;;20.73;60.97;100624.22;146622;565;46020;-72
2023/05/15 11:36:57;;;;;;;;;8.00;7.00;;;;;21.85;57.23;100796.47;146615;645;46017;-72
2023/05/15 11:40:11;;;;;;;;;8.67;7.67;;;;;22.03;59.32;100798.34;146618;611;46020;-72
2023/05/15 11:43:30;;;;;;;;;8.67;8.00;;;;;21.54;58.44;100692.47;146614;649;47012;-73
2023/05/15 11:46:42;;;;;;;;;6.33;6.33;;;;;22.29;56.49;100780.00;146622;584;46020;-73
2023/05/15 11:49:34;;;;;;;;;7.33;7.00;;;;;22.39;56.46;100780.94;146616;563;46016;-72
2023/05/15 11:52:44;;;;;;;;;9.33;8.33;;;;;22.46;57.42;100769.50;146615;570;47020;-73
2023/05/15 11:55:39;;;;;;;;;10.00;9.00;;;;;22.60;56.34;100765.16;146617;570;46016;-72
2023/05/15 11:58:47;;;;;;;;;8.33;6.00;;;;;22.71;54.71;100774.00;146619;592;46031;-72
2023/05/15 12:01:53;;;;;;;;;7.33;6.00;;;;;22.70;56.04;100766.03;146704;573;46022;-72
2023/05/15 12:05:05;;;;;;;;;7.00;7.00;;;;;22.60;56.10;100767.78;146619;564;46016;-72
2023/05/15 12:07:57;;;;;;;;;9.67;9.67;;;;;22.46;55.70;100773.03;146622;575;46029;-73
2023/05/15 12:11:13;;;;;;;;;9.33;8.33;;;;;22.30;57.15;100765.91;146618;690;46031;-72
2023/05/15 12:14:08;;;;;;;;;6.00;6.00;;;;;22.19;58.02;100775.56;146620;620;46020;-72
2023/05/15 12:17:22;;;;;;;;;9.00;8.00;;;;;21.96;60.12;100764.84;146614;566;47016;-72
2023/05/15 12:20:25;;;;;;;;;8.00;7.33;;;;;21.75;60.13;100752.44;146617;618;46020;-72
2023/05/15 12:23:32;;;;;;;;;8.33;8.33;;;;;21.79;61.18;100752.44;146615;580;47017;-72
2023/05/15 12:26:33;;;;;;;;;10.67;9.67;;;;;21.82;59.11;100743.66;146623;620;46020;-72
2023/05/15 12:29:29;;;;;;;;;7.00;6.00;;;;;21.88;59.21;100748.97;146618;595;46034;-73
2023/05/15 12:32:35;;;;;;;;;;;;;;;;;;;;;
2023/05/15 12:35:28;;;;;;;;;8.00;8.00;;;;;21.73;58.89;100752.41;146619;582;47012;-72
2023/05/15 12:38:24;;;;;;;;;7.00;7.00;;;;;21.64;58.60;100742.66;146624;580;46010;-72
2023/05/15 12:41:28;;;;;;;;;5.67;5.67;;;;;21.54;59.07;100743.50;146613;563;47014;-72
2023/05/15 12:44:32;;;;;;;;;7.00;7.00;;;;;21.51;59.24;100742.59;146620;573;46012;-71
2023/05/15 12:47:28;;;;;;;;;8.00;8.00;;;;;21.54;59.24;100748.78;146620;607;46016;-70
2023/05/15 12:50:29;;;;;;;;;7.00;7.00;;;;;21.53;59.22;100743.50;146620;617;46020;-71
2023/05/15 12:53:49;;;;;;;;;;;;;;;;;;;;;
2023/05/15 12:56:45;;;;;;;;;9.33;7.00;;;;;21.56;59.39;100727.69;146619;584;46020;-71
2023/05/15 12:59:52;;;;;;;;;6.33;6.33;;;;;21.64;60.28;100731.25;146619;594;46016;-71
2023/05/15 13:03:11;;;;;;;;;7.67;7.00;;;;;21.74;59.94;100733.03;146619;605;46591;-71
2023/05/15 13:06:30;;;;;;;;;8.33;8.33;;;;;21.83;59.28;100737.50;146614;659;46016;-71
2023/05/15 13:09:32;;;;;;;;;8.00;8.00;;;;;21.84;59.67;100741.94;146621;615;46011;-71
2023/05/15 13:12:51;;;;;;;;;11.33;7.33;;;;;21.78;59.93;100755.97;146618;592;46012;-71
2023/05/15 13:16:04;;;;;;;;;9.67;8.33;;;;;21.68;60.16;100748.84;146620;597;46012;-71
2023/05/15 13:19:23;;;;;;;;;9.00;9.00;;;;;21.04;60.52;100649.03;146620;600;46033;-71
2023/05/15 13:22:16;;;;;;;;;8.00;7.67;;;;;21.51;58.23;100740.84;146622;610;45022;-71
2023/05/15 13:25:25;;;;;;;;;6.67;5.33;;;;;21.48;59.43;100742.56;146617;564;46036;-71
2023/05/15 13:28:23;;;;;;;;;9.50;7.00;;;;;21.50;59.63;100736.44;146621;570;47010;-72
2023/05/15 13:31:22;;;;;;;;;7.00;7.00;;;;;21.55;59.22;100725.91;146615;596;47014;-72
2023/05/15 13:34:38;;;;;;;;;8.67;7.67;;;;;21.64;58.66;100713.66;146619;680;47034;-72
2023/05/15 13:37:31;;;;;;;;;7.33;7.00;;;;;21.72;58.55;100721.63;146619;590;46012;-72
2023/05/15 13:40:37;;;;;;;;;6.67;6.00;;;;;21.79;57.83;100718.13;146619;604;47010;-72
2023/05/15 13:43:54;;;;;;;;;;;;;;;;;;;;;
2023/05/15 13:46:49;;;;;;;;;6.00;6.00;;;;;21.96;56.18;100696.19;146617;569;46023;-72
2023/05/15 13:49:57;;;;;;;;;8.67;6.33;;;;;22.10;58.32;100686.59;146618;569;46012;-72
2023/05/15 13:52:53;;;;;;;;;7.00;6.00;;;;;22.32;55.13;100677.87;146622;572;46010;-72
2023/05/15 13:56:05;;;;;;;;;8.00;7.33;;;;;22.45;57.39;100677.91;146618;590;46016;-72
2023/05/15 13:59:30;;;;;;;;;;;;;;;;;;;;;
2023/05/15 14:02:30;;;;;;;;;5.33;5.33;;;;;22.67;56.75;100678.81;146614;593;47012;-71
2023/05/15 14:05:25;;;;;;;;;7.00;6.00;;;;;22.76;55.95;100676.19;146622;603;46020;-73
2023/05/15 14:08:23;;;;;;;;;6.67;6.67;;;;;22.78;55.73;100677.06;146616;582;46017;-72
2023/05/15 14:11:21;;;;;;;;;5.00;5.00;;;;;22.74;55.58;100667.34;146617;617;47020;-71
2023/05/15 14:14:22;;;;;;;;;8.33;7.67;;;;;22.61;56.05;100679.69;146613;582;46016;-71
2023/05/15 14:17:34;;;;;;;;;6.00;6.00;;;;;22.43;55.58;100677.00;146620;573;46020;-72
2023/05/15 14:20:32;;;;;;;;;6.67;5.00;;;;;22.29;56.18;100688.44;146617;582;47012;-70
2023/05/15 14:23:44;;;;;;;;;8.00;8.00;;;;;22.16;57.56;100691.00;146618;573;47012;-72
2023/05/15 14:26:44;;;;;;;;;8.00;8.00;;;;;21.96;58.14;100678.59;146613;590;46016;-73
2023/05/15 14:29:47;;;;;;;;;6.00;6.00;;;;;21.84;57.67;100689.13;146619;598;47013;-72